Time;durP1;ratioP1;P1;durP2;ratioP2;P2;SDS_P1;SDS_P2;PMS_P1;PMS_P2;Temp;Humidity;BMP_temperature;BMP_pressure;BME280_temperature;BME280_humidity;BME280_pressure;Samples;Min_cycle;Max_cycle;Signal;HPM_P1;HPM_P2
2023/12/09 00:00:38;;;;;;;13.10;10.20;;;;;;;-1.89;100.00;100938.32;89294;283;136648;-77
2023/12/09 00:02:41;;;;;;;14.80;11.10;;;;;;;-1.95;100.00;100942.19;90434;279;24055;-73
2023/12/09 00:04:43;;;;;;;15.40;11.00;;;;;;;-2.02;100.00;100941.88;89361;282;137010;-79
2023/12/09 00:06:47;;;;;;;18.80;11.60;;;;;;;-2.03;100.00;100945.07;88757;276;24093;-82
2023/12/09 00:08:50;;;;;;;14.60;10.80;;;;;;;-2.00;100.00;100943.17;88798;280;138889;-84
2023/12/09 00:10:52;;;;;;;14.30;11.10;;;;;;;-1.98;100.00;100935.94;88750;283;22553;-82
2023/12/09 00:12:54;;;;;;;15.30;11.50;;;;;;;-1.97;100.00;100938.08;88355;276;137659;-74
2023/12/09 00:14:56;;;;;;;14.80;11.10;;;;;;;-1.91;100.00;100941.44;88457;284;25135;-79
2023/12/09 00:16:58;;;;;;;16.80;10.10;;;;;;;-1.85;100.00;100940.20;88367;274;139864;-79
2023/12/09 00:19:01;;;;;;;16.60;11.10;;;;;;;-1.83;100.00;100937.28;88455;283;24032;-70
2023/12/09 00:21:03;;;;;;;17.20;12.10;;;;;;;-1.84;100.00;100935.56;88266;276;137405;-78
2023/12/09 00:23:06;;;;;;;17.30;12.40;;;;;;;-1.86;100.00;100932.91;88313;276;25115;-78
2023/12/09 00:25:08;;;;;;;18.70;12.90;;;;;;;-1.86;100.00;100931.22;88366;282;136919;-79
2023/12/09 00:27:10;;;;;;;18.90;12.10;;;;;;;-1.88;100.00;100927.65;88500;276;23030;-80
2023/12/09 00:29:14;;;;;;;17.50;12.50;;;;;;;-1.87;100.00;100931.56;88388;276;137967;-78
2023/12/09 00:31:18;;;;;;;16.90;13.30;;;;;;;-1.87;100.00;100934.40;88559;281;22537;-72
2023/12/09 00:33:20;;;;;;;14.50;10.90;;;;;;;-1.85;100.00;100936.17;88392;283;137395;-80
2023/12/09 00:35:22;;;;;;;14.20;11.00;;;;;;;-1.82;100.00;100938.09;88471;276;24087;-80
2023/12/09 00:37:24;;;;;;;20.10;11.70;;;;;;;-1.81;100.00;100940.95;88421;284;137979;-83
2023/12/09 00:39:26;;;;;;;15.70;11.80;;;;;;;-1.78;100.00;100945.32;88525;276;22560;-78
2023/12/09 00:41:28;;;;;;;14.50;10.70;;;;;;;-1.73;100.00;100949.22;88425;276;137369;-83
2023/12/09 00:43:30;;;;;;;18.00;11.50;;;;;;;-1.69;100.00;100948.43;88522;284;22579;-83
2023/12/09 00:45:32;;;;;;;15.20;11.70;;;;;;;-1.70;100.00;100950.27;88586;276;136654;-83
2023/12/09 00:47:34;;;;;;;17.10;12.40;;;;;;;-1.77;100.00;100952.38;88686;276;22474;-82
2023/12/09 00:49:36;;;;;;;14.60;11.90;;;;;;;-1.80;100.00;100958.34;88853;284;136601;-81
2023/12/09 00:51:39;;;;;;;15.20;11.50;;;;;;;-1.84;100.00;100953.89;90621;284;22471;-69
2023/12/09 00:53:41;;;;;;;19.30;13.40;;;;;;;-1.86;100.00;100957.48;89604;283;136218;-84
2023/12/09 00:55:43;;;;;;;14.20;10.90;;;;;;;-1.88;100.00;100960.74;89034;280;22641;-80
2023/12/09 00:57:45;;;;;;;19.10;11.10;;;;;;;-1.87;100.00;100961.58;88840;277;138806;-82
2023/12/09 00:59:47;;;;;;;14.40;10.80;;;;;;;-1.87;100.00;100956.31;88604;284;22533;-79
2023/12/09 01:01:49;;;;;;;17.10;12.50;;;;;;;-1.89;100.00;100953.65;88445;285;136899;-75
2023/12/09 01:03:51;;;;;;;16.20;12.20;;;;;;;-1.94;100.00;100950.98;88902;276;22554;-83
2023/12/09 01:05:54;;;;;;;16.80;12.60;;;;;;;-2.00;100.00;100949.78;89707;283;138991;-80
2023/12/09 01:07:56;;;;;;;17.10;12.70;;;;;;;-2.02;100.00;100945.91;91122;284;22547;-72
2023/12/09 01:09:58;;;;;;;17.40;12.40;;;;;;;-2.01;100.00;100939.91;90492;284;138328;-80
2023/12/09 01:12:01;;;;;;;16.90;11.60;;;;;;;-1.98;100.00;100939.40;90158;276;22545;-82
2023/12/09 01:14:04;;;;;;;16.60;12.30;;;;;;;-2.02;100.00;100936.68;90348;284;22577;-75
2023/12/09 01:16:07;;;;;;;18.10;13.10;;;;;;;-2.12;100.00;100934.84;89693;284;136478;-77
2023/12/09 01:18:09;;;;;;;17.00;12.40;;;;;;;-2.20;100.00;100931.46;88834;276;22574;-77
2023/12/09 01:20:14;;;;;;;16.90;11.60;;;;;;;-2.25;100.00;100933.83;88841;280;137118;-73
2023/12/09 01:22:15;;;;;;;17.80;11.90;;;;;;;-2.23;100.00;100933.73;88730;283;23978;-76
2023/12/09 01:24:18;;;;;;;15.70;11.50;;;;;;;-2.21;100.00;100939.91;88491;282;137489;-78
2023/12/09 01:26:22;;;;;;;16.70;12.40;;;;;;;-2.21;100.00;100943.00;88073;284;664675;-79
2023/12/09 01:28:24;;;;;;;14.90;11.40;;;;;;;-2.20;100.00;100947.84;88832;284;137094;-80
2023/12/09 01:30:26;;;;;;;17.00;12.10;;;;;;;-2.15;100.00;100949.65;89630;284;22553;-79
2023/12/09 01:32:28;;;;;;;18.90;12.80;;;;;;;-2.13;100.00;100948.70;88667;284;136674;-82
2023/12/09 01:34:31;;;;;;;19.70;12.70;;;;;;;-2.13;100.00;100949.91;88955;284;23978;-81
2023/12/09 01:36:35;;;;;;;16.70;11.00;;;;;;;-2.12;100.00;100948.75;88577;283;137986;-82
2023/12/09 01:38:37;;;;;;;17.20;11.70;;;;;;;-2.12;100.00;100948.45;88514;282;25190;-83
2023/12/09 01:40:39;;;;;;;15.80;11.20;;;;;;;-2.12;100.00;100947.94;88271;283;139101;-82
2023/12/09 01:42:42;;;;;;;16.60;11.50;;;;;;;-2.13;100.00;100950.77;88402;284;22534;-80
2023/12/09 01:44:44;;;;;;;12.40;9.70;;;;;;;-2.16;100.00;100949.89;88325;284;137006;-80
2023/12/09 01:46:47;;;;;;;17.50;12.10;;;;;;;-2.17;100.00;100951.69;88496;283;25169;-82
2023/12/09 01:48:49;;;;;;;15.10;10.50;;;;;;;-2.19;100.00;100952.98;88384;276;138704;-81
2023/12/09 01:50:51;;;;;;;17.90;11.90;;;;;;;-2.19;100.00;100948.15;88517;280;25227;-80
2023/12/09 01:52:55;;;;;;;17.00;11.90;;;;;;;-2.22;100.00;100948.65;88256;283;137364;-83
2023/12/09 01:54:59;;;;;;;16.70;11.50;;;;;;;-2.23;100.00;100945.96;88428;283;25193;-82
2023/12/09 01:57:01;;;;;;;16.30;11.70;;;;;;;-2.23;100.00;100947.69;88308;283;137201;-84
2023/12/09 01:59:04;;;;;;;15.80;12.20;;;;;;;-2.24;100.00;100946.52;88494;283;24042;-80
2023/12/09 02:01:06;;;;;;;15.60;12.20;;;;;;;-2.22;100.00;100943.10;88399;280;137517;-82
2023/12/09 02:03:08;;;;;;;17.90;12.60;;;;;;;-2.22;100.00;100943.41;88474;278;25300;-81
2023/12/09 02:05:12;;;;;;;20.40;14.50;;;;;;;-2.28;100.00;100941.73;88459;284;136493;-84
2023/12/09 02:07:14;;;;;;;18.70;13.70;;;;;;;-2.38;100.00;100947.84;88590;280;22549;-79
2023/12/09 02:09:18;;;;;;;19.00;12.90;;;;;;;-2.44;100.00;100947.38;88402;283;138414;-84
2023/12/09 02:11:28;;;;;;;19.20;13.00;;;;;;;-2.52;100.00;100935.30;88752;284;22548;-82
2023/12/09 02:13:45;;;;;;;20.50;13.90;;;;;;;-2.46;100.00;100944.69;89857;283;137153;-80
2023/12/09 02:16:00;;;;;;;18.50;12.60;;;;;;;-2.52;100.00;100936.34;89637;284;22461;-69
2023/12/09 02:18:05;;;;;;;19.50;13.00;;;;;;;-2.44;100.00;100945.27;88496;283;136918;-83
2023/12/09 02:20:11;;;;;;;20.30;13.40;;;;;;;-2.50;100.00;100932.72;88367;283;138982;-80
2023/12/09 02:22:13;;;;;;;18.00;12.50;;;;;;;-2.46;100.00;100944.13;88580;283;22524;-78
2023/12/09 02:24:15;;;;;;;20.80;13.20;;;;;;;-2.48;100.00;100949.33;88573;276;138005;-77
2023/12/09 02:26:23;;;;;;;17.10;13.10;;;;;;;-2.51;100.00;100945.31;88455;280;22537;-75
2023/12/09 02:28:29;;;;;;;21.70;13.70;;;;;;;-2.52;100.00;100945.41;88263;284;137345;-76
2023/12/09 02:30:50;;;;;;;19.40;12.10;;;;;;;-2.51;100.00;100946.71;88388;280;24816;-73
2023/12/09 02:32:55;;;;;;;21.70;12.30;;;;;;;-2.53;100.00;100941.43;88308;284;137431;-75
2023/12/09 02:35:00;;;;;;;19.30;12.30;;;;;;;-2.55;100.00;100942.57;88435;280;25179;-75
2023/12/09 02:37:04;;;;;;;20.40;14.40;;;;;;;-2.56;100.00;100938.14;88375;284;137202;-76
2023/12/09 02:39:08;;;;;;;21.50;13.00;;;;;;;-2.57;100.00;100937.66;88492;281;22461;-75
2023/12/09 02:41:11;;;;;;;20.80;13.60;;;;;;;-2.59;100.00;100938.80;88377;284;138761;-72
2023/12/09 02:43:14;;;;;;;16.20;11.90;;;;;;;-2.60;100.00;100942.54;88489;284;25153;-73
2023/12/09 02:45:19;;;;;;;16.40;13.20;;;;;;;-2.63;100.00;100938.70;88204;279;137551;-78
2023/12/09 02:47:21;;;;;;;19.50;13.80;;;;;;;-2.64;100.00;100937.68;88611;277;23984;-72
2023/12/09 02:49:23;;;;;;;22.10;13.30;;;;;;;-2.65;100.00;100942.47;88179;280;138792;-70
2023/12/09 02:51:26;;;;;;;19.40;14.00;;;;;;;-2.66;100.00;100942.51;88521;283;24208;-73
2023/12/09 02:53:28;;;;;;;19.70;13.10;;;;;;;-2.73;100.00;100924.86;88478;283;137210;-72
2023/12/09 02:55:30;;;;;;;17.80;12.30;;;;;;;-2.64;100.00;100937.21;88417;278;22721;-72
2023/12/09 02:57:32;;;;;;;21.10;13.50;;;;;;;-2.64;100.00;100939.78;88465;280;137129;-76
2023/12/09 02:59:34;;;;;;;21.50;14.70;;;;;;;-2.64;100.00;100941.16;88532;276;22540;-71
2023/12/09 03:01:36;;;;;;;17.60;12.20;;;;;;;-2.61;100.00;100941.89;88335;283;139135;-75
2023/12/09 03:03:40;;;;;;;21.10;13.90;;;;;;;-2.58;100.00;100944.12;88484;276;22554;-73
2023/12/09 03:05:42;;;;;;;19.10;11.90;;;;;;;-2.62;100.00;100945.77;88235;283;136237;-70
2023/12/09 03:07:44;;;;;;;19.20;13.80;;;;;;;-2.68;100.00;100945.41;88366;280;22562;-70
2023/12/09 03:09:47;;;;;;;16.60;11.80;;;;;;;-2.70;100.00;100946.73;88267;283;137214;-71
2023/12/09 03:11:49;;;;;;;18.00;13.90;;;;;;;-2.62;100.00;100949.78;88497;277;25798;-70
2023/12/09 03:13:51;;;;;;;16.50;12.30;;;;;;;-2.54;100.00;100950.70;88382;282;137230;-72
2023/12/09 03:15:53;;;;;;;20.60;12.90;;;;;;;-2.50;100.00;100953.48;88431;283;22552;-72
2023/12/09 03:17:55;;;;;;;18.10;12.30;;;;;;;-2.51;100.00;100952.14;88305;283;136982;-74
2023/12/09 03:19:57;;;;;;;20.90;13.20;;;;;;;-2.52;100.00;100952.84;88421;276;25147;-72
2023/12/09 03:21:59;;;;;;;17.80;13.50;;;;;;;-2.49;100.00;100953.05;88373;276;137057;-73
2023/12/09 03:24:01;;;;;;;21.10;12.50;;;;;;;-2.48;100.00;100957.17;88399;283;22537;-72
2023/12/09 03:26:03;;;;;;;20.50;13.30;;;;;;;-2.45;100.00;100959.61;88382;276;22533;-73
2023/12/09 03:28:05;;;;;;;20.10;13.40;;;;;;;-2.43;100.00;100956.52;88346;277;136995;-72
2023/12/09 03:30:08;;;;;;;22.30;13.00;;;;;;;-2.42;100.00;100957.67;88430;276;23977;-71
2023/12/09 03:32:10;;;;;;;17.60;12.40;;;;;;;-2.41;100.00;100960.03;88357;276;137574;-72
2023/12/09 03:34:13;;;;;;;17.10;11.90;;;;;;;-2.38;100.00;100961.79;88387;276;22543;-69
2023/12/09 03:36:15;;;;;;;17.10;12.60;;;;;;;-2.39;100.00;100958.38;88681;276;137822;-67
2023/12/09 03:38:17;;;;;;;20.70;14.20;;;;;;;-2.46;100.00;100956.84;88828;284;24098;-71
2023/12/09 03:40:21;;;;;;;17.30;12.70;;;;;;;-2.46;100.00;100965.75;88279;283;136855;-76
2023/12/09 03:42:23;;;;;;;19.40;14.00;;;;;;;-2.53;100.00;100962.13;88449;276;22550;-74
2023/12/09 03:44:26;;;;;;;18.50;11.90;;;;;;;-2.54;100.00;100962.56;88298;283;137145;-71
2023/12/09 03:46:28;;;;;;;18.60;13.00;;;;;;;-2.55;100.00;100958.21;88352;284;22553;-71
2023/12/09 03:48:30;;;;;;;19.20;13.20;;;;;;;-2.56;100.00;100957.09;88294;276;137303;-73
2023/12/09 03:50:33;;;;;;;22.10;14.90;;;;;;;-2.53;100.00;100960.73;88426;276;24173;-74
2023/12/09 03:52:35;;;;;;;20.40;12.90;;;;;;;-2.52;100.00;100963.48;88279;280;137495;-74
2023/12/09 03:54:39;;;;;;;16.40;12.40;;;;;;;-2.53;100.00;100965.09;88414;276;25193;-72
2023/12/09 03:56:41;;;;;;;23.00;14.30;;;;;;;-2.48;100.00;100967.45;88383;282;137264;-70
2023/12/09 03:58:43;;;;;;;21.20;12.70;;;;;;;-2.48;100.00;100962.89;88367;283;25329;-71
2023/12/09 04:00:45;;;;;;;17.40;12.40;;;;;;;-2.47;100.00;100963.01;88408;282;137147;-73
2023/12/09 04:02:48;;;;;;;19.20;12.80;;;;;;;-2.46;100.00;100959.29;91215;284;22266;-72
2023/12/09 04:04:50;;;;;;;19.20;13.50;;;;;;;-2.44;100.00;100961.77;88459;276;137313;-74
2023/12/09 04:06:52;;;;;;;18.60;13.00;;;;;;;-2.44;100.00;100957.80;88468;276;23978;-71
2023/12/09 04:08:54;;;;;;;18.60;12.30;;;;;;;-2.40;100.00;100961.58;88295;283;137275;-73
2023/12/09 04:10:57;;;;;;;17.50;12.40;;;;;;;-2.41;100.00;100960.90;88453;284;25137;-72
2023/12/09 04:12:59;;;;;;;20.20;12.00;;;;;;;-2.43;100.00;100954.21;88337;284;137592;-73
2023/12/09 04:15:03;;;;;;;27.90;13.90;;;;;;;-2.52;100.00;100936.52;88419;284;22540;-74
2023/12/09 04:17:05;;;;;;;20.90;13.40;;;;;;;-2.41;100.00;100946.80;88408;276;137227;-73
2023/12/09 04:19:08;;;;;;;22.10;15.20;;;;;;;-2.38;100.00;100950.29;88476;284;25230;-74
2023/12/09 04:21:11;;;;;;;28.40;14.70;;;;;;;-2.35;100.00;100947.52;88504;282;138208;-74
2023/12/09 04:23:13;;;;;;;20.20;14.20;;;;;;;-2.35;100.00;100948.54;88321;281;22609;-76
2023/12/09 04:25:15;;;;;;;23.80;14.30;;;;;;;-2.34;100.00;100951.28;88261;280;136671;-72
2023/12/09 04:27:17;;;;;;;21.80;14.50;;;;;;;-2.32;100.00;100949.77;88379;276;22544;-71
2023/12/09 04:29:19;;;;;;;24.70;14.90;;;;;;;-2.28;100.00;100955.11;88352;283;139518;-75
2023/12/09 04:31:21;;;;;;;21.20;12.70;;;;;;;-2.22;100.00;100957.54;88436;284;22537;-77
2023/12/09 04:33:23;;;;;;;19.70;11.80;;;;;;;-2.20;100.00;100957.39;88276;276;137295;-75
2023/12/09 04:35:25;;;;;;;19.30;13.40;;;;;;;-2.23;100.00;100954.66;88391;280;24024;-75
2023/12/09 04:37:27;;;;;;;21.10;13.90;;;;;;;-2.26;100.00;100957.98;88307;276;137375;-76
2023/12/09 04:39:29;;;;;;;20.20;13.00;;;;;;;-2.29;100.00;100957.77;88435;282;25163;-77
2023/12/09 04:41:31;;;;;;;20.70;14.30;;;;;;;-2.29;100.00;100956.41;88381;283;137395;-75
2023/12/09 04:43:33;;;;;;;18.90;12.30;;;;;;;-2.29;100.00;100953.28;88416;284;25256;-77
2023/12/09 04:45:35;;;;;;;20.60;13.10;;;;;;;-2.30;100.00;100949.30;88483;280;137379;-72
2023/12/09 04:47:38;;;;;;;21.30;12.80;;;;;;;-2.28;100.00;100953.02;88324;283;22544;-72
2023/12/09 04:49:40;;;;;;;17.40;12.20;;;;;;;-2.34;100.00;100938.95;88381;283;137496;-71
2023/12/09 04:51:42;;;;;;;19.40;12.50;;;;;;;-2.26;100.00;100952.20;88235;277;22535;-68
2023/12/09 04:53:44;;;;;;;19.00;11.60;;;;;;;-2.26;100.00;100956.90;88239;282;137682;-70
2023/12/09 04:55:46;;;;;;;20.70;11.40;;;;;;;-2.26;100.00;100961.24;88397;283;22889;-73
2023/12/09 04:57:48;;;;;;;24.80;14.00;;;;;;;-2.29;100.00;100961.41;88336;284;138739;-72
2023/12/09 04:59:51;;;;;;;22.10;14.90;;;;;;;-2.32;100.00;100963.52;88506;283;25135;-71
2023/12/09 05:01:53;;;;;;;22.40;13.50;;;;;;;-2.37;100.00;100955.80;88370;277;137988;-71
2023/12/09 05:03:56;;;;;;;22.10;13.30;;;;;;;-2.31;100.00;100967.48;88459;276;25304;-71
2023/12/09 05:05:59;;;;;;;20.00;12.90;;;;;;;-2.30;100.00;100969.67;88319;276;136918;-75
2023/12/09 05:08:01;;;;;;;20.70;13.80;;;;;;;-2.31;100.00;100970.27;88291;280;24058;-71
2023/12/09 05:10:04;;;;;;;27.40;14.90;;;;;;;-2.43;100.00;100954.94;88265;280;136361;-71
2023/12/09 05:12:06;;;;;;;23.70;13.90;;;;;;;-2.37;100.00;100973.00;88097;276;137384;-69
2023/12/09 05:14:08;;;;;;;22.80;14.70;;;;;;;-2.38;100.00;100977.31;88123;276;25112;-68
2023/12/09 05:16:11;;;;;;;21.00;14.10;;;;;;;-2.34;100.00;100982.10;87966;276;139092;-72
2023/12/09 05:18:13;;;;;;;28.00;15.20;;;;;;;-2.29;100.00;100985.63;88486;276;22528;-69
2023/12/09 05:20:15;;;;;;;22.40;13.70;;;;;;;-2.22;100.00;100986.25;87910;276;137670;-67
2023/12/09 05:22:17;;;;;;;24.50;15.10;;;;;;;-2.16;100.00;100991.33;87922;274;23292;-69
2023/12/09 05:24:19;;;;;;;24.50;14.80;;;;;;;-2.13;100.00;100989.97;87783;274;137246;-69
2023/12/09 05:26:26;;;;;;;23.40;13.10;;;;;;;-2.12;100.00;100990.27;87865;275;25163;-69
2023/12/09 05:29:34;;;;;;;27.10;14.10;;;;;;;-2.15;100.00;100990.39;86279;301;602866;-69
2023/12/09 05:31:36;;;;;;;25.00;14.20;;;;;;;-2.19;100.00;100989.20;87275;288;24032;-69
2023/12/09 05:33:40;;;;;;;24.30;13.90;;;;;;;-2.22;100.00;100991.80;87237;288;139224;-68
2023/12/09 05:35:42;;;;;;;20.50;14.60;;;;;;;-2.24;100.00;100990.90;87209;288;23775;-70
2023/12/09 05:37:44;;;;;;;28.60;15.90;;;;;;;-2.33;100.00;100981.66;87285;288;136473;-69
2023/12/09 05:39:45;;;;;;;24.00;14.00;;;;;;;-2.23;100.00;100995.23;87560;282;22551;-71
2023/12/09 05:41:47;;;;;;;23.80;15.50;;;;;;;-2.22;100.00;100994.59;87477;286;137353;-72
2023/12/09 05:43:49;;;;;;;22.50;13.80;;;;;;;-2.26;100.00;100986.66;87508;284;535054;-70
2023/12/09 05:45:51;;;;;;;21.30;13.80;;;;;;;-2.18;100.00;100996.63;87670;280;136765;-71
2023/12/09 05:47:56;;;;;;;25.60;16.90;;;;;;;-2.17;100.00;100994.34;87854;280;22532;-71
2023/12/09 05:49:58;;;;;;;20.00;13.40;;;;;;;-2.15;100.00;100993.02;88045;279;136470;-70
2023/12/09 05:52:00;;;;;;;21.40;14.50;;;;;;;-2.11;100.00;100992.43;87954;283;22526;-70
2023/12/09 05:54:02;;;;;;;23.90;14.40;;;;;;;-2.08;100.00;100994.00;87964;280;25171;-74
2023/12/09 05:56:07;;;;;;;22.30;14.40;;;;;;;-2.05;100.00;100996.41;87852;276;136903;-71
2023/12/09 05:58:09;;;;;;;23.10;13.50;;;;;;;-2.00;100.00;100995.93;89301;284;25080;-68
2023/12/09 06:00:12;;;;;;;22.30;14.40;;;;;;;-1.98;100.00;100995.29;87943;281;137106;-70
2023/12/09 06:02:14;;;;;;;24.50;14.10;;;;;;;-1.98;100.00;100995.85;88087;277;24192;-70
2023/12/09 06:04:16;;;;;;;18.40;13.20;;;;;;;-2.04;100.00;100994.24;87819;278;137411;-69
2023/12/09 06:06:18;;;;;;;22.60;14.50;;;;;;;-2.03;100.00;100996.81;87850;278;25209;-69
2023/12/09 06:08:23;;;;;;;20.50;13.00;;;;;;;-2.04;100.00;100996.69;88302;285;136204;-69
2023/12/09 06:10:25;;;;;;;22.10;13.90;;;;;;;-2.03;100.00;100995.77;87888;278;23797;-71
2023/12/09 06:12:27;;;;;;;19.90;13.10;;;;;;;-2.01;100.00;100990.42;87831;285;137005;-68
2023/12/09 06:14:29;;;;;;;16.70;12.00;;;;;;;-1.98;100.00;100987.64;87912;282;24057;-70
2023/12/09 06:16:31;;;;;;;20.90;13.50;;;;;;;-1.99;100.00;100991.70;88228;279;137380;-69
2023/12/09 06:18:33;;;;;;;21.70;13.60;;;;;;;-2.03;100.00;100993.35;88250;277;22535;-70
2023/12/09 06:20:35;;;;;;;19.10;14.00;;;;;;;-2.03;100.00;100998.02;88443;278;136568;-69
2023/12/09 06:22:38;;;;;;;18.80;12.90;;;;;;;-1.98;100.00;100992.84;88279;278;23568;-70
2023/12/09 06:24:40;;;;;;;20.90;12.90;;;;;;;-1.92;100.00;100989.04;88363;278;136902;-71
2023/12/09 06:26:44;;;;;;;19.60;13.90;;;;;;;-1.89;100.00;100990.07;88124;278;22547;-72
2023/12/09 06:28:46;;;;;;;21.20;14.00;;;;;;;-1.90;100.00;100989.79;89946;287;136764;-69
2023/12/09 06:30:48;;;;;;;16.60;12.80;;;;;;;-1.91;100.00;100987.04;88203;278;22562;-69
2023/12/09 06:32:50;;;;;;;18.80;12.60;;;;;;;-1.91;100.00;100983.59;88077;278;136155;-68
2023/12/09 06:34:52;;;;;;;16.80;12.00;;;;;;;-1.91;100.00;100985.15;88200;278;23126;-70
2023/12/09 06:36:54;;;;;;;19.30;12.90;;;;;;;-1.88;100.00;100983.05;88084;277;137050;-67
2023/12/09 06:38:56;;;;;;;19.40;12.80;;;;;;;-1.83;100.00;100984.51;88251;285;22553;-66
2023/12/09 06:40:58;;;;;;;17.00;11.60;;;;;;;-1.80;100.00;100985.88;88153;278;137148;-69
2023/12/09 06:43:00;;;;;;;18.40;11.60;;;;;;;-1.78;100.00;100984.73;88094;279;22535;-67
2023/12/09 06:45:04;;;;;;;19.00;11.50;;;;;;;-1.75;100.00;100988.21;88288;282;136852;-69
2023/12/09 06:47:06;;;;;;;18.50;12.40;;;;;;;-1.71;100.00;100986.76;88468;285;22882;-68
2023/12/09 06:49:08;;;;;;;15.30;11.40;;;;;;;-1.71;100.00;100983.08;88110;283;135785;-67
2023/12/09 06:51:15;;;;;;;14.80;10.70;;;;;;;-1.74;100.00;100986.55;88323;278;24123;-66
2023/12/09 06:53:18;;;;;;;19.50;12.30;;;;;;;-1.81;100.00;100989.58;88088;282;135991;-68
2023/12/09 06:55:20;;;;;;;18.70;12.90;;;;;;;-1.91;100.00;100987.73;88229;282;24105;-71
2023/12/09 06:57:22;;;;;;;15.60;11.50;;;;;;;-1.90;100.00;100989.61;88036;279;136677;-68
2023/12/09 06:59:26;;;;;;;13.10;10.40;;;;;;;-1.86;100.00;100990.07;88220;282;25258;-70
2023/12/09 07:01:28;;;;;;;13.60;10.90;;;;;;;-1.80;100.00;100993.36;88310;277;136978;-67
2023/12/09 07:03:30;;;;;;;12.40;9.40;;;;;;;-1.76;100.00;100993.63;88585;277;24023;-61
2023/12/09 07:05:32;;;;;;;16.00;10.70;;;;;;;-1.71;100.00;100994.56;88431;282;136701;-69
2023/12/09 07:07:34;;;;;;;12.50;9.00;;;;;;;-1.64;100.00;100996.05;88317;282;22547;-66
2023/12/09 07:09:36;;;;;;;9.60;8.40;;;;;;;-1.61;100.00;100994.66;88099;282;136147;-69
2023/12/09 07:11:38;;;;;;;12.00;9.80;;;;;;;-1.64;100.00;100995.00;88229;279;28283;-68
2023/12/09 07:13:40;;;;;;;13.40;11.20;;;;;;;-1.66;100.00;100993.41;88124;279;137310;-64
2023/12/09 07:15:42;;;;;;;13.80;9.70;;;;;;;-1.64;100.00;100993.09;88334;278;25197;-65
2023/12/09 07:17:44;;;;;;;23.00;10.80;;;;;;;-1.64;100.00;100995.90;88168;281;137787;-64
2023/12/09 07:19:46;;;;;;;13.90;9.20;;;;;;;-1.63;100.00;100996.52;88209;284;22537;-67
2023/12/09 07:21:48;;;;;;;13.70;9.20;;;;;;;-1.60;100.00;101000.64;88133;279;136727;-68
2023/12/09 07:23:53;;;;;;;13.40;10.10;;;;;;;-1.55;100.00;101000.71;88273;283;22553;-70
2023/12/09 07:25:55;;;;;;;14.00;9.90;;;;;;;-1.52;100.00;100997.58;88227;282;135681;-71
2023/12/09 07:27:59;;;;;;;12.10;9.30;;;;;;;-1.47;100.00;100998.52;88499;276;23702;-70
2023/12/09 07:30:01;;;;;;;15.20;12.10;;;;;;;-1.42;100.00;101000.45;88427;278;136144;-69
2023/12/09 07:32:04;;;;;;;13.70;10.60;;;;;;;-1.40;100.00;101005.58;88127;278;137121;-67
2023/12/09 07:34:06;;;;;;;17.10;13.10;;;;;;;-1.41;100.00;101007.88;88389;277;25084;-71
2023/12/09 07:36:09;;;;;;;15.90;12.80;;;;;;;-1.41;100.00;101010.70;88411;279;136795;-70
2023/12/09 07:38:12;;;;;;;15.70;12.20;;;;;;;-1.41;100.00;101008.10;88350;286;22541;-69
2023/12/09 07:40:15;;;;;;;16.10;11.80;;;;;;;-1.42;100.00;101011.23;88084;280;137454;-69
2023/12/09 07:42:18;;;;;;;13.30;10.40;;;;;;;-1.44;100.00;101016.29;88199;280;22546;-68
2023/12/09 07:44:20;;;;;;;14.20;11.00;;;;;;;-1.43;100.00;101019.72;88150;283;137230;-69
2023/12/09 07:46:24;;;;;;;12.50;11.20;;;;;;;-1.40;100.00;101023.36;88208;286;22532;-70
2023/12/09 07:48:27;;;;;;;12.00;9.30;;;;;;;-1.37;100.00;101024.20;88032;279;135975;-68
2023/12/09 07:50:34;;;;;;;11.00;9.60;;;;;;;-1.33;100.00;101026.25;88371;282;22692;-67
2023/12/09 07:52:36;;;;;;;13.60;10.00;;;;;;;-1.30;100.00;101025.23;88940;286;137012;-67
2023/12/09 07:54:38;;;;;;;13.50;9.80;;;;;;;-1.27;100.00;101031.63;88289;278;25087;-64
2023/12/09 07:56:40;;;;;;;13.50;10.40;;;;;;;-1.27;100.00;101031.98;88187;278;136035;-70
2023/12/09 07:58:42;;;;;;;12.90;10.20;;;;;;;-1.30;100.00;101030.42;88261;278;22611;-70
2023/12/09 08:00:44;;;;;;;14.40;10.90;;;;;;;-1.33;100.00;101033.59;88228;285;137625;-69
2023/12/09 08:02:47;;;;;;;14.60;11.80;;;;;;;-1.37;100.00;101037.11;88252;282;24214;-66
2023/12/09 08:04:49;;;;;;;17.20;11.40;;;;;;;-1.42;100.00;101034.98;88235;286;137163;-67
2023/12/09 08:06:52;;;;;;;15.80;11.90;;;;;;;-1.42;100.00;101033.61;88110;283;23714;-72
2023/12/09 08:08:54;;;;;;;15.60;11.50;;;;;;;-1.40;100.00;101028.57;88087;282;138496;-68
2023/12/09 08:10:56;;;;;;;14.40;11.00;;;;;;;-1.36;100.00;101022.58;88079;286;22523;-70
2023/12/09 08:12:58;;;;;;;14.50;11.00;;;;;;;-1.29;100.00;101016.90;87978;278;138558;-67
2023/12/09 08:15:00;;;;;;;15.90;12.60;;;;;;;-1.18;100.00;101014.16;88138;278;23257;-67
2023/12/09 08:17:02;;;;;;;17.80;12.90;;;;;;;-1.10;100.00;101012.95;88057;279;136778;-68
2023/12/09 08:19:04;;;;;;;16.50;12.80;;;;;;;-1.05;100.00;101014.53;88245;285;24017;-69
2023/12/09 08:21:06;;;;;;;17.80;11.60;;;;;;;-1.00;100.00;101013.73;88081;278;136920;-66
2023/12/09 08:23:08;;;;;;;15.40;12.10;;;;;;;-0.98;100.00;101010.79;88124;286;26333;-67
2023/12/09 08:25:10;;;;;;;15.60;12.70;;;;;;;-0.95;100.00;101007.67;88153;285;137802;-70
2023/12/09 08:27:12;;;;;;;15.90;12.00;;;;;;;-0.89;100.00;101008.15;88040;282;22551;-71
2023/12/09 08:29:14;;;;;;;15.20;10.70;;;;;;;-0.83;100.00;101008.09;88126;285;138375;-69
2023/12/09 08:31:17;;;;;;;13.50;10.20;;;;;;;-0.78;100.00;101007.11;88142;285;23716;-73
2023/12/09 08:33:19;;;;;;;15.20;10.50;;;;;;;-0.77;100.00;101007.06;88234;285;137178;-67
2023/12/09 08:35:21;;;;;;;15.00;10.90;;;;;;;-0.78;100.00;101008.64;88241;282;22602;-69
2023/12/09 08:37:25;;;;;;;13.90;11.30;;;;;;;-0.78;100.00;101006.91;88000;283;137178;-67
2023/12/09 08:39:27;;;;;;;14.80;12.30;;;;;;;-0.80;100.00;101006.88;89646;279;22540;-70
2023/12/09 08:41:29;;;;;;;14.30;11.90;;;;;;;-0.83;100.00;101006.02;88188;282;136423;-68
2023/12/09 08:43:31;;;;;;;15.20;12.40;;;;;;;-0.88;100.00;101003.91;88182;282;24404;-69
2023/12/09 08:45:34;;;;;;;16.60;12.40;;;;;;;-0.96;100.00;101000.89;88227;285;136484;-71
2023/12/09 08:47:37;;;;;;;21.50;14.10;;;;;;;-0.97;100.00;100999.27;88293;279;24040;-67
2023/12/09 08:49:43;;;;;;;19.80;13.90;;;;;;;-0.97;100.00;100997.70;88000;285;136868;-71
2023/12/09 08:51:47;;;;;;;17.50;12.60;;;;;;;-0.95;100.00;100992.48;88138;283;25600;-69
2023/12/09 08:53:50;;;;;;;18.00;11.90;;;;;;;-0.87;100.00;100994.56;88121;278;137516;-70
2023/12/09 08:55:52;;;;;;;14.30;11.10;;;;;;;-0.81;100.00;100993.48;88424;286;25236;-68
2023/12/09 08:57:54;;;;;;;13.00;9.50;;;;;;;-0.77;100.00;100990.83;88253;278;137655;-68
2023/12/09 08:59:56;;;;;;;12.40;9.70;;;;;;;-0.79;100.00;100990.96;88323;283;25280;-70
2023/12/09 09:01:59;;;;;;;16.00;11.50;;;;;;;-0.79;100.00;100990.75;88519;278;136248;-70
2023/12/09 09:04:04;;;;;;;13.80;11.00;;;;;;;-0.80;100.00;100991.66;88256;284;136704;-68
2023/12/09 09:06:06;;;;;;;15.20;12.00;;;;;;;-0.82;100.00;100991.29;88310;280;22534;-64
2023/12/09 09:08:08;;;;;;;16.00;11.50;;;;;;;-0.85;100.00;100987.65;88236;281;136547;-72
2023/12/09 09:10:10;;;;;;;18.90;13.20;;;;;;;-0.87;100.00;100984.98;88410;285;22631;-64
2023/12/09 09:12:13;;;;;;;13.50;10.60;;;;;;;-0.88;100.00;100981.41;88140;278;136850;-64
2023/12/09 09:14:15;;;;;;;13.60;10.40;;;;;;;-0.88;100.00;100975.30;88137;278;25121;-62
2023/12/09 09:16:17;;;;;;;15.90;12.50;;;;;;;-0.90;100.00;100976.63;88149;278;137767;-70